Terminal Aerodrome Forecast
Issued by NWS Columbia, SC

Home | Current Version | Previous Version | Text Only | Print | Product List | Glossary On
Versions: 1 2 3 4 5 6 7 8 9 10 11 12 13 14 15 16 17 18 19 20 21 22 23 24 25 26 27 28 29 30 31 32 33 34 35
000
FTUS42 KCAE 282327
TAFCAE
TAF
KCAE 282327Z 2900/2924 13008KT P6SM SCT050
     FM290200 VRB04KT P6SM SKC
     FM291400 11007KT P6SM SCT030
     FM291800 13012KT P6SM SCT050=

USA.gov is the U.S. government's official web portal to all federal, state and local government web resources and services.